Time;durP1;ratioP1;P1;durP2;ratioP2;P2;SDS_P1;SDS_P2;PMS_P1;PMS_P2;Temp;Humidity;BMP_temperature;BMP_pressure;BME280_temperature;BME280_humidity;BME280_pressure;Samples;Min_cycle;Max_cycle;Signal;HPM_P1;HPM_P2
2022/05/06 00:02:24;;;;;;;94.82;50.80;;;;;;;10.01;94.34;102517.09;6100253;23;20006;-86
2022/05/06 00:04:55;;;;;;;96.78;51.20;;;;;;;8.97;94.22;102344.34;6097476;23;20006;-89
2022/05/06 00:07:29;;;;;;;94.18;51.17;;;;;;;8.38;93.65;102256.09;6096307;23;20006;-91
2022/05/06 00:10:10;;;;;;;89.15;49.28;;;;;;;8.28;93.64;102248.63;6096325;23;20509;-90
2022/05/06 00:12:35;;;;;;;95.72;49.25;;;;;;;8.63;93.73;102316.22;6095216;23;20018;-90
2022/05/06 00:15:07;;;;;;;101.43;55.92;;;;;;;8.70;94.68;102329.75;6096023;23;20017;-89
2022/05/06 00:17:50;;;;;;;107.13;55.60;;;;;;;9.34;94.92;102435.94;6097051;23;20006;-89
2022/05/06 00:20:19;;;;;;;112.32;56.33;;;;;;;8.24;95.64;102265.03;6097742;23;20427;-90
2022/05/06 00:22:44;;;;;;;101.03;52.70;;;;;;;8.51;94.30;102327.75;6114515;23;20012;-87
2022/05/06 00:25:12;;;;;;;101.95;55.00;;;;;;;9.68;95.51;102528.56;6132326;23;20009;-89
2022/05/06 00:27:41;;;;;;;109.28;57.65;;;;;;;9.64;95.47;102521.81;6160934;23;20019;-90
2022/05/06 00:30:19;;;;;;;90.32;51.13;;;;;;;8.55;94.12;102360.25;6163105;23;20036;-89
2022/05/06 00:32:44;;;;;;;102.18;53.33;;;;;;;8.00;93.86;102282.03;6163341;23;20006;-90
2022/05/06 00:35:10;;;;;;;98.00;54.70;;;;;;;8.50;94.83;102380.13;6159743;23;20061;-89
2022/05/06 00:37:41;;;;;;;114.65;60.85;;;;;;;9.31;96.80;102495.34;6159955;23;20408;-87
2022/05/06 00:40:13;;;;;;;101.45;55.15;;;;;;;7.99;95.23;102289.81;6160451;23;20009;-89
2022/05/06 00:42:39;;;;;;;99.63;54.55;;;;;;;7.96;94.92;102282.16;6160558;23;20002;-89
2022/05/06 00:45:17;;;;;;;103.55;55.92;;;;;;;8.48;95.17;102379.34;6161851;23;20005;-88
2022/05/06 00:48:02;;;;;;;98.20;53.83;;;;;;;8.61;94.30;102408.13;6164613;23;20013;-89
2022/05/06 00:50:32;;;;;;;101.28;55.70;;;;;;;7.68;95.04;102264.13;6138276;23;20005;-89
2022/05/06 00:53:01;;;;;;;102.13;55.15;;;;;;;7.50;94.84;102234.63;6164435;23;20002;-87
2022/05/06 00:55:36;;;;;;;106.07;54.28;;;;;;;7.88;94.92;102297.00;6161764;23;20032;-89
2022/05/06 00:58:11;;;;;;;92.90;52.83;;;;;;;7.98;94.66;102325.00;6161420;23;20424;-89
2022/05/06 01:00:37;;;;;;;92.30;53.28;;;;;;;9.08;94.39;102525.22;6162453;23;20005;-88
2022/05/06 01:03:02;;;;;;;96.53;54.83;;;;;;;8.27;94.70;102406.50;6135550;23;20001;-89
2022/05/06 01:05:28;;;;;;;104.72;54.83;;;;;;;9.03;95.11;102523.66;6161078;23;20091;-88
2022/05/06 01:08:03;;;;;;;107.72;58.25;;;;;;;8.03;96.16;102359.13;6160751;23;20056;-88
2022/05/06 01:10:35;;;;;;;101.32;54.45;;;;;;;7.70;94.94;102311.19;6160656;23;20009;-87
2022/05/06 01:13:00;;;;;;;93.60;53.67;;;;;;;8.13;94.75;102382.03;6160579;23;20017;-89
2022/05/06 01:15:28;;;;;;;102.97;56.78;;;;;;;8.54;95.85;102448.66;6161253;23;20012;-89
2022/05/06 01:18:02;;;;;;;105.75;58.20;;;;;;;7.33;95.89;102259.94;6111390;23;20017;-89
2022/05/06 01:20:36;;;;;;;102.93;56.45;;;;;;;8.94;95.84;102524.78;6130805;23;20085;-89
2022/05/06 01:23:01;;;;;;;96.22;52.60;;;;;;;8.76;95.54;102504.72;6131620;23;20435;-90
2022/05/06 01:28:21;;;;;;;93.03;53.20;;;;;;;7.24;95.18;102279.00;6162915;23;20030;-89
2022/05/06 01:31:11;;;;;;;99.60;55.08;;;;;;;7.81;96.16;102364.91;6139430;23;20305;-88
2022/05/06 01:36:18;;;;;;;121.53;63.45;;;;;;;7.94;99.23;102381.69;6162825;23;20455;-88
2022/05/06 01:38:49;;;;;;;134.60;68.40;;;;;;;7.98;99.64;102379.00;6162674;23;20012;-89
2022/05/06 01:41:33;;;;;;;119.45;63.20;;;;;;;8.38;99.56;102428.56;6165205;23;20368;-89
2022/05/06 01:44:05;;;;;;;137.43;65.40;;;;;;;9.04;99.76;102533.09;6164971;23;20029;-89
2022/05/06 01:46:35;;;;;;;124.72;63.78;;;;;;;7.94;99.40;102345.69;6167274;23;20404;-86
2022/05/06 01:49:03;;;;;;;171.10;59.88;;;;;;;7.96;99.55;102349.03;6164707;23;20009;-88
2022/05/06 01:51:39;;;;;;;162.57;58.25;;;;;;;8.12;99.43;102377.78;6165114;23;20008;-89
2022/05/06 01:54:05;;;;;;;117.38;59.70;;;;;;;7.66;99.12;102295.00;6165287;23;20077;-87
2022/05/06 01:56:30;;;;;;;131.45;57.65;;;;;;;7.99;99.36;102346.41;6164342;23;20013;-88
2022/05/06 01:59:05;;;;;;;136.73;52.47;;;;;;;7.86;99.19;102311.59;6166531;23;20002;-88
2022/05/06 02:01:33;;;;;;;153.32;52.72;;;;;;;8.62;99.12;102444.13;6166305;23;20063;-90
2022/05/06 02:06:54;;;;;;;136.07;51.60;;;;;;;7.89;99.41;102332.13;6160114;23;20020;-87
2022/05/06 02:09:32;;;;;;;145.15;54.58;;;;;;;7.78;99.63;102303.28;6161742;23;20012;-89
2022/05/06 02:11:57;;;;;;;151.18;53.20;;;;;;;7.87;99.60;102323.59;6161498;23;20092;-90
2022/05/06 02:14:43;;;;;;;179.45;55.40;;;;;;;8.21;99.76;102369.78;6160559;23;20039;-89
2022/05/06 02:17:20;;;;;;;126.00;53.78;;;;;;;8.31;99.97;102382.34;6161152;23;20005;-90
2022/05/06 02:19:55;;;;;;;122.40;53.35;;;;;;;8.69;100.00;102442.22;6160071;23;20001;-89
2022/05/06 02:22:30;;;;;;;134.88;55.22;;;;;;;8.70;100.00;102443.91;6133180;23;20009;-90
2022/05/06 02:24:56;;;;;;;144.00;53.83;;;;;;;7.88;99.76;102300.41;6162634;23;19997;-90
2022/05/06 02:27:39;;;;;;;122.43;51.30;;;;;;;8.55;100.00;102409.16;6164621;23;20008;-90
2022/05/06 02:36:02;;;;;;;128.48;52.90;;;;;;;7.76;100.00;102291.28;6159735;23;20029;-89
2022/05/06 02:38:28;;;;;;;144.18;54.85;;;;;;;8.25;100.00;102366.25;6159419;23;20445;-88
2022/05/06 02:41:09;;;;;;;129.23;53.83;;;;;;;8.88;100.00;102469.13;6158080;23;20049;-88
2022/05/06 02:43:43;;;;;;;147.13;54.47;;;;;;;7.85;100.00;102284.19;6133443;23;20436;-90
2022/05/06 02:46:08;;;;;;;139.75;51.85;;;;;;;9.36;100.00;102540.72;6160417;23;20005;-89
2022/05/06 02:48:37;;;;;;;146.60;51.15;;;;;;;8.17;100.00;102338.16;6161624;23;20044;-90
2022/05/06 02:51:02;;;;;;;149.60;51.80;;;;;;;8.60;100.00;102420.16;6161004;23;20028;-89
2022/05/06 02:53:37;;;;;;;127.22;50.42;;;;;;;9.26;100.00;102510.13;6160035;23;20468;-89
2022/05/06 02:56:09;;;;;;;163.05;52.45;;;;;;;8.55;100.00;102396.31;6131688;23;20016;-90
2022/05/06 02:58:43;;;;;;;;;;;;;;;9.53;100.00;102539.34;6133147;23;20496;-90
2022/05/06 03:01:09;;;;;;;127.15;51.92;;;;;;;8.26;100.00;102332.75;6159279;23;19909;-89
2022/05/06 03:03:34;;;;;;;163.23;48.97;;;;;;;9.45;100.00;102537.88;6158780;23;20052;-89
2022/05/06 03:06:00;;;;;;;130.43;49.28;;;;;;;8.14;100.00;102333.09;6158787;23;19997;-89
2022/05/06 03:08:28;;;;;;;141.40;50.55;;;;;;;7.96;100.00;102297.59;6159445;23;20005;-88
2022/05/06 03:10:58;;;;;;;128.38;48.42;;;;;;;7.98;100.00;102285.56;6157843;23;20012;-89
2022/05/06 03:13:24;;;;;;;120.45;50.38;;;;;;;9.51;100.00;102546.28;6158476;23;20072;-90
2022/05/06 03:15:59;;;;;;;129.52;49.28;;;;;;;8.05;100.00;102305.91;6131501;23;20052;-89
2022/05/06 03:18:40;;;;;;;161.48;47.15;;;;;;;8.02;100.00;102293.13;6157461;23;20306;-90
2022/05/06 03:21:11;;;;;;;143.98;45.65;;;;;;;8.53;100.00;102386.91;6157340;23;20005;-89
2022/05/06 03:23:52;;;;;;;120.28;46.45;;;;;;;8.78;100.00;102415.38;6158917;23;20002;-89
2022/05/06 03:26:28;;;;;;;132.53;48.03;;;;;;;8.07;100.00;102294.75;6131002;23;20029;-89
2022/05/06 03:28:57;;;;;;;166.90;49.53;;;;;;;8.44;100.00;102361.44;6132001;23;20036;-87
2022/05/06 03:31:31;;;;;;;134.85;48.50;;;;;;;8.10;100.00;102298.06;6157507;23;20331;-88
2022/05/06 03:33:58;;;;;;;157.02;49.42;;;;;;;8.34;100.00;102351.41;6157006;23;20037;-88
2022/05/06 03:36:24;;;;;;;136.30;50.75;;;;;;;8.27;100.00;102329.28;6129057;23;20013;-88
2022/05/06 03:39:01;;;;;;;117.40;49.35;;;;;;;8.11;100.00;102304.03;6132079;23;20404;-88
2022/05/06 03:41:33;;;;;;;134.88;50.65;;;;;;;8.72;100.00;102411.22;6133383;23;20010;-90
2022/05/06 03:43:58;;;;;;;130.68;49.08;;;;;;;9.06;100.00;102469.47;6156660;23;20076;-88
2022/05/06 03:46:26;;;;;;;155.88;48.83;;;;;;;8.77;100.00;102429.97;6156345;23;20051;-86
2022/05/06 03:49:01;;;;;;;154.82;48.08;;;;;;;8.19;100.00;102331.25;6117602;23;20026;-89
2022/05/06 03:51:32;;;;;;;139.30;45.40;;;;;;;8.10;100.00;102308.34;6096834;23;20102;-88
2022/05/06 03:53:58;;;;;;;135.23;45.72;;;;;;;8.55;100.00;102387.69;6101219;23;19998;-86
2022/05/06 03:56:25;;;;;;;150.75;46.50;;;;;;;8.67;100.00;102430.28;6102367;23;20013;-88
2022/05/06 03:58:51;;;;;;;142.52;42.42;;;;;;;8.28;100.00;102358.44;6128431;23;20005;-88
2022/05/06 04:01:19;;;;;;;139.77;40.92;;;;;;;8.43;100.00;102390.63;6101601;23;20080;-89
2022/05/06 04:03:47;;;;;;;162.68;40.70;;;;;;;8.74;100.00;102440.34;6068527;23;20455;-87
2022/05/06 04:06:14;;;;;;;120.35;42.20;;;;;;;8.10;100.00;102339.22;6069856;23;20018;-89
2022/05/06 04:08:41;;;;;;;155.48;42.60;;;;;;;9.31;100.00;102532.28;6068466;23;20014;-89
2022/05/06 04:11:17;;;;;;;100.32;39.13;;;;;;;8.82;100.00;102453.00;6066748;23;20134;-88
2022/05/06 04:13:43;;;;;;;119.03;39.17;;;;;;;8.33;100.00;102384.88;6066698;23;20093;-89
2022/05/06 04:16:08;;;;;;;154.52;38.22;;;;;;;8.77;100.00;102453.16;6066355;23;20015;-89
2022/05/06 04:18:33;;;;;;;200.45;37.58;;;;;;;7.95;100.00;102322.47;6067555;23;20488;-88
2022/05/06 04:23:42;;;;;;;104.60;35.75;;;;;;;7.93;100.00;102324.25;6066467;23;20018;-89
2022/05/06 04:26:20;;;;;;;82.07;35.35;;;;;;;8.32;100.00;102396.91;6065888;23;20007;-89
2022/05/06 04:28:57;;;;;;;102.25;34.95;;;;;;;8.69;100.00;102454.28;6065778;23;20007;-89
2022/05/06 04:31:22;;;;;;;106.18;36.50;;;;;;;8.12;100.00;102367.47;6065806;23;20013;-87
2022/05/06 04:33:56;;;;;;;89.88;35.65;;;;;;;8.32;100.00;102404.63;6072963;23;20007;-90
2022/05/06 04:36:38;;;;;;;99.22;35.05;;;;;;;8.46;100.00;102414.59;6126390;23;20081;-89
2022/05/06 04:39:04;;;;;;;101.95;34.40;;;;;;;7.83;100.00;102314.28;6099292;23;20013;-89
2022/05/06 04:41:29;;;;;;;103.45;34.28;;;;;;;7.82;100.00;102313.44;6126019;23;20006;-88
2022/05/06 04:44:01;;;;;;;84.45;32.38;;;;;;;7.91;100.00;102332.91;6126257;23;20008;-88
2022/05/06 04:46:26;;;;;;;78.40;29.42;;;;;;;8.11;100.00;102361.50;6126462;23;20443;-88
2022/05/06 04:49:09;;;;;;;64.78;29.50;;;;;;;7.46;100.00;102264.69;6126490;23;20053;-88
2022/05/06 04:51:35;;;;;;;71.05;26.83;;;;;;;8.34;100.00;102413.19;6128017;23;20416;-89
2022/05/06 04:54:03;;;;;;;66.53;26.27;;;;;;;7.92;100.00;102344.88;6127096;23;20002;-89
2022/05/06 04:56:38;;;;;;;56.30;25.40;;;;;;;9.28;100.00;102572.78;6101249;23;20076;-88
2022/05/06 04:59:03;;;;;;;73.57;25.73;;;;;;;8.30;100.00;102414.13;6126743;23;20010;-89
2022/05/06 05:01:29;;;;;;;71.00;25.38;;;;;;;8.06;100.00;102378.78;6100231;23;20086;-89
2022/05/06 05:03:59;;;;;;;59.15;27.30;;;;;;;8.64;100.00;102462.09;6126324;23;20006;-90
2022/05/06 05:06:24;;;;;;;71.72;27.60;;;;;;;8.35;100.00;102416.59;6126627;23;20010;-88
2022/05/06 05:08:50;;;;;;;63.38;28.17;;;;;;;8.41;100.00;102426.72;6126755;23;20016;-89
2022/05/06 05:11:25;;;;;;;60.22;27.17;;;;;;;7.91;100.00;102345.78;6126120;23;20009;-89
2022/05/06 05:14:06;;;;;;;63.15;27.90;;;;;;;7.99;100.00;102379.84;6099805;23;20010;-88
2022/05/06 05:16:50;;;;;;;56.63;24.98;;;;;;;7.95;100.00;102375.66;6102767;23;20060;-87
2022/05/06 05:19:16;;;;;;;50.47;24.10;;;;;;;8.91;100.00;102556.63;6128191;23;20006;-87
2022/05/06 05:21:42;;;;;;;56.17;24.17;;;;;;;9.09;100.00;102562.16;6128094;23;20010;-81
2022/05/06 05:24:25;;;;;;;62.15;24.40;;;;;;;9.15;100.00;102585.19;6128403;23;20006;-88
2022/05/06 05:26:59;;;;;;;63.13;27.10;;;;;;;8.52;100.00;102467.63;6127493;23;20006;-89
2022/05/06 05:29:30;;;;;;;61.35;25.95;;;;;;;8.02;100.00;102364.31;6127965;23;20005;-87
2022/05/06 05:31:56;;;;;;;74.47;26.55;;;;;;;8.42;100.00;102419.84;6101958;23;20033;-88
2022/05/06 05:34:21;;;;;;;66.85;25.80;;;;;;;8.78;100.00;102487.50;6102218;23;20017;-89
2022/05/06 05:36:47;;;;;;;46.05;24.05;;;;;;;8.28;100.00;102408.19;6128414;23;20036;-89
2022/05/06 05:39:12;;;;;;;56.20;26.02;;;;;;;8.05;100.00;102353.94;6128287;23;20021;-90
2022/05/06 05:41:38;;;;;;;60.38;24.23;;;;;;;8.25;100.00;102385.09;6101095;23;20013;-89
2022/05/06 05:49:32;;;;;;;38.00;20.80;;;;;;;9.58;100.00;102601.94;6127654;23;20143;-88
2022/05/06 05:51:58;;;;;;;51.75;21.33;;;;;;;9.16;98.82;102533.59;6152534;23;20041;-89
2022/05/06 05:54:26;;;;;;;73.85;20.73;;;;;;;8.69;98.07;102454.28;6131244;23;20006;-85
2022/05/06 05:57:10;;;;;;;41.97;20.38;;;;;;;8.24;98.33;102364.56;6156741;23;20072;-88
2022/05/06 05:59:45;;;;;;;53.22;20.25;;;;;;;8.30;98.54;102367.81;6157298;23;20006;-87
2022/05/06 06:02:25;;;;;;;50.83;21.45;;;;;;;8.50;97.77;102366.41;6131727;23;20005;-86
2022/05/06 06:04:51;;;;;;;50.33;20.67;;;;;;;8.25;97.93;102325.91;6130990;23;20012;-87
2022/05/06 06:07:18;;;;;;;46.53;22.02;;;;;;;8.44;97.99;102348.56;6131115;23;20431;-84
2022/05/06 06:09:43;;;;;;;66.05;22.13;;;;;;;9.00;98.08;102460.19;6157005;23;20317;-85
2022/05/06 06:12:09;;;;;;;66.40;20.08;;;;;;;9.39;97.95;102514.00;6129116;23;20060;-83
2022/05/06 06:14:35;;;;;;;44.92;19.92;;;;;;;9.04;97.41;102442.91;6157462;23;20009;-83
2022/05/06 06:17:06;;;;;;;44.13;19.52;;;;;;;9.14;96.89;102442.59;6157527;23;20002;-85
2022/05/06 06:19:40;;;;;;;;;;;;;;;10.32;96.49;102590.97;6157373;23;20309;-86
2022/05/06 06:22:06;;;;;;;36.78;19.55;;;;;;;9.29;95.25;102430.94;6131084;23;19912;-84
2022/05/06 06:24:31;;;;;;;36.45;18.95;;;;;;;8.95;94.64;102371.91;6157042;23;20059;-85
2022/05/06 06:26:58;;;;;;;39.80;20.17;;;;;;;9.03;94.34;102385.38;6156698;23;20010;-84
2022/05/06 06:29:36;;;;;;;35.90;20.50;;;;;;;9.16;95.16;102375.53;6156829;23;20048;-85
2022/05/06 06:32:02;;;;;;;37.83;22.10;;;;;;;9.44;95.05;102420.16;6131157;23;20015;-83
2022/05/06 06:34:37;;;;;;;37.47;20.65;;;;;;;9.06;95.09;102341.47;6156740;23;20463;-84
2022/05/06 06:37:06;;;;;;;39.75;21.38;;;;;;;10.64;94.86;102595.06;6156747;23;20021;-83
2022/05/06 06:39:37;;;;;;;39.25;21.00;;;;;;;9.61;94.15;102393.78;6156692;23;20010;-84
2022/05/06 06:42:33;;;;;;;;;;;;;;;11.05;93.67;102593.56;6157431;23;20516;-82
2022/05/06 06:45:11;;;;;;;38.95;19.83;;;;;;;10.57;93.16;102513.50;6156484;23;19916;-85
2022/05/06 06:47:48;;;;;;;33.53;18.95;;;;;;;9.69;92.59;102362.56;6157446;23;20435;-83
2022/05/06 06:50:14;;;;;;;29.17;17.55;;;;;;;9.73;91.60;102372.75;6157921;23;20009;-86
2022/05/06 06:52:45;;;;;;;30.83;17.70;;;;;;;10.16;90.90;102432.31;6156701;23;20335;-84
2022/05/06 06:55:54;;;;;;;35.72;19.33;;;;;;;11.40;90.37;102605.16;6156737;23;20419;-85
2022/05/06 06:58:19;;;;;;;33.08;18.65;;;;;;;11.46;88.90;102623.06;6130231;23;20010;-84
2022/05/06 07:00:48;;;;;;;34.40;19.42;;;;;;;10.24;88.56;102448.41;6156598;23;20332;-86
2022/05/06 07:03:20;;;;;;;34.35;20.65;;;;;;;10.56;90.35;102480.81;6156802;23;20324;-85
2022/05/06 07:14:16;;;;;;;44.22;23.63;;;;;;;10.55;89.83;102472.22;6157165;23;20016;-84
2022/05/06 07:16:42;;;;;;;39.22;23.25;;;;;;;11.09;89.62;102558.09;6156923;23;20001;-84
2022/05/06 07:19:09;;;;;;;39.72;22.25;;;;;;;11.00;89.17;102540.34;6129587;23;20037;-86
2022/05/06 07:21:35;;;;;;;43.10;24.77;;;;;;;10.66;90.09;102478.75;6156645;23;20013;-84
2022/05/06 07:24:09;;;;;;;50.85;24.60;;;;;;;10.28;89.57;102403.50;6156756;23;20005;-84
2022/05/06 07:26:35;;;;;;;44.70;25.38;;;;;;;10.82;89.25;102479.88;6156927;23;20324;-84
2022/05/06 07:29:19;;;;;;;42.30;23.77;;;;;;;10.56;89.17;102403.31;6155673;23;20008;-84
2022/05/06 07:31:51;;;;;;;44.05;26.02;;;;;;;11.44;88.24;102554.19;6114889;23;20100;-84
2022/05/06 07:34:19;;;;;;;40.25;24.60;;;;;;;11.05;87.66;102499.66;6156739;23;20021;-84
2022/05/06 07:36:48;;;;;;;42.60;25.23;;;;;;;10.96;88.42;102487.09;6156201;23;20010;-84
2022/05/06 07:39:15;;;;;;;44.08;26.60;;;;;;;11.95;88.11;102647.06;6156527;23;20055;-87
2022/05/06 07:41:41;;;;;;;45.03;27.10;;;;;;;11.72;88.06;102606.53;6156235;23;20002;-87
2022/05/06 07:44:22;;;;;;;40.80;24.17;;;;;;;10.73;88.00;102420.78;6156026;23;20012;-85
2022/05/06 07:46:57;;;;;;;42.60;26.17;;;;;;;11.13;87.43;102464.00;6156370;23;20002;-85
2022/05/06 07:49:23;;;;;;;47.42;28.10;;;;;;;11.96;86.72;102602.13;6156661;23;20013;-83
2022/05/06 07:51:51;;;;;;;45.17;28.23;;;;;;;11.07;86.60;102456.50;6156402;23;20008;-85
2022/05/06 07:54:17;;;;;;;46.60;27.83;;;;;;;11.43;85.86;102498.16;6156116;23;19998;-85
2022/05/06 07:56:57;;;;;;;47.42;28.30;;;;;;;11.09;86.44;102426.25;6124411;23;20053;-86
2022/05/06 07:59:22;;;;;;;46.90;28.02;;;;;;;12.53;85.98;102655.03;6124085;23;20006;-86
2022/05/06 08:05:08;;;;;;;46.63;28.08;;;;;;;11.75;85.78;102476.16;6124200;23;20081;-85
2022/05/06 08:07:44;;;;;;;47.33;29.33;;;;;;;12.59;84.95;102609.91;6125091;23;20022;-85
2022/05/06 08:10:09;;;;;;;46.90;26.50;;;;;;;12.50;84.35;102572.25;6124227;23;20021;-87
2022/05/06 08:12:34;;;;;;;47.78;28.85;;;;;;;12.17;83.03;102491.63;6124428;23;20017;-87
2022/05/06 08:15:18;;;;;;;46.20;29.00;;;;;;;12.05;83.50;102437.81;6123354;23;20017;-86
2022/05/06 08:17:46;;;;;;;44.03;27.73;;;;;;;12.43;82.01;102506.06;6099805;23;20013;-88
2022/05/06 08:20:20;;;;;;;46.00;28.27;;;;;;;12.05;82.74;102432.63;6122997;23;20475;-87
2022/05/06 08:22:49;;;;;;;41.40;26.27;;;;;;;12.99;80.32;102579.63;6121950;23;20017;-87
2022/05/06 08:25:18;;;;;;;41.20;27.10;;;;;;;12.38;79.75;102458.78;6122737;23;20057;-87
2022/05/06 08:27:44;;;;;;;38.30;26.55;;;;;;;12.78;79.39;102480.28;6122349;23;20037;-86
2022/05/06 08:30:13;;;;;;;38.92;25.77;;;;;;;14.34;78.02;102656.25;6122124;23;20014;-85
2022/05/06 08:32:47;;;;;;;40.30;25.77;;;;;;;13.93;76.61;102530.16;6143131;23;20017;-86
2022/05/06 08:35:25;;;;;;;38.45;23.50;;;;;;;13.66;75.81;102423.34;6155709;23;20455;-85
2022/05/06 08:40:26;;;;;;;41.17;25.80;;;;;;;14.83;74.08;102572.31;6153527;23;20084;-83
2022/05/06 08:43:07;;;;;;;41.10;26.38;;;;;;;14.01;73.65;102432.75;6154521;23;20327;-84
2022/05/06 08:51:39;;;;;;;35.40;22.70;;;;;;;14.89;73.01;102559.84;6154658;23;20236;-86
2022/05/06 08:54:18;;;;;;;39.15;25.63;;;;;;;14.57;72.10;102514.75;6154464;23;20359;-83
2022/05/06 08:56:47;;;;;;;37.30;24.88;;;;;;;14.24;70.74;102441.09;6154938;23;20332;-85
2022/05/06 08:59:12;;;;;;;33.55;23.05;;;;;;;14.27;71.10;102451.38;6155843;23;20009;-83
2022/05/06 09:01:38;;;;;;;34.17;23.30;;;;;;;15.37;72.04;102637.94;6155700;23;20005;-83
2022/05/06 09:04:03;;;;;;;36.58;24.48;;;;;;;15.33;72.99;102637.25;6155708;23;20040;-79
2022/05/06 09:06:31;;;;;;;34.63;22.70;;;;;;;15.28;72.41;102596.81;6156000;23;20064;-82
2022/05/06 09:08:59;;;;;;;32.65;22.88;;;;;;;15.75;72.14;102609.84;6155619;23;20005;-78
2022/05/06 09:14:20;;;;;;;35.15;24.00;;;;;;;16.44;70.17;102637.97;6156152;23;20028;-83
2022/05/06 09:16:46;;;;;;;35.55;23.95;;;;;;;16.66;68.20;102636.69;6129316;23;20336;-82
2022/05/06 09:19:16;;;;;;;34.70;23.63;;;;;;;16.63;66.38;102635.09;6155844;23;20008;-82
2022/05/06 09:22:05;;;;;;;35.30;22.50;;;;;;;16.44;68.58;102600.63;6155594;23;20002;-80
2022/05/06 09:24:31;;;;;;;34.83;23.25;;;;;;;16.40;67.37;102636.44;6008528;23;20509;-86
2022/05/06 09:29:54;;;;;;;32.50;21.98;;;;;;;14.80;68.50;102416.44;6008702;23;20048;-82
2022/05/06 09:32:30;;;;;;;30.70;21.00;;;;;;;15.92;69.42;102625.31;5985347;23;20379;-84
2022/05/06 09:35:14;;;;;;;31.90;21.58;;;;;;;15.49;71.51;102580.00;5981002;23;20007;-85
2022/05/06 09:37:54;;;;;;;34.47;22.60;;;;;;;15.15;71.14;102563.66;6008583;23;20023;-84
2022/05/06 09:40:52;;;;;;;33.33;22.00;;;;;;;15.32;71.95;102626.94;6008506;23;20439;-82
2022/05/06 09:43:26;;;;;;;32.17;21.88;;;;;;;14.04;74.10;102442.16;6008551;23;20019;-85
2022/05/06 09:46:32;;;;;;;31.83;21.27;;;;;;;13.86;73.56;102417.13;6008445;23;20372;-82
2022/05/06 09:49:39;;;;;;;31.23;20.48;;;;;;;15.09;74.10;102609.97;6007118;23;20023;-83
2022/05/06 09:53:08;;;;;;;31.48;20.48;;;;;;;15.04;73.63;102610.19;6007759;23;20032;-84
2022/05/06 09:55:44;;;;;;;28.30;18.77;;;;;;;14.13;73.64;102478.03;6008351;23;20020;-84
2022/05/06 09:58:17;;;;;;;28.08;18.20;;;;;;;14.97;74.00;102615.84;5979408;23;20077;-83
2022/05/06 10:00:48;;;;;;;29.15;18.70;;;;;;;13.87;76.89;102396.28;5965600;23;20011;-81
2022/05/06 10:03:20;;;;;;;;;;;;;;;15.19;73.63;102614.59;6039102;23;20452;-82
2022/05/06 10:05:54;;;;;;;31.08;18.38;;;;;;;15.15;74.49;102609.66;6038511;23;19917;-84
2022/05/06 10:08:28;;;;;;;26.92;17.77;;;;;;;13.97;73.01;102401.84;6014633;23;20007;-84
2022/05/06 10:10:57;;;;;;;29.55;18.60;;;;;;;15.24;76.63;102561.44;6038222;23;20015;-82
2022/05/06 10:13:38;;;;;;;28.33;19.23;;;;;;;14.72;73.10;102470.63;6009775;23;20330;-82
2022/05/06 10:16:15;;;;;;;28.85;17.95;;;;;;;14.81;71.65;102488.34;5985905;23;20003;-83
2022/05/06 10:18:42;;;;;;;28.20;18.25;;;;;;;15.25;71.61;102566.59;6022725;23;20019;-82
2022/05/06 10:21:08;;;;;;;29.75;18.98;;;;;;;15.20;73.38;102547.78;6067184;23;20006;-81
2022/05/06 10:23:52;;;;;;;28.98;18.33;;;;;;;15.69;74.49;102599.75;6066206;23;20010;-81
2022/05/06 10:26:42;;;;;;;26.35;17.30;;;;;;;15.81;73.42;102590.38;6067750;23;20033;-82
2022/05/06 10:32:54;;;;;;;23.13;15.15;;;;;;;15.34;69.64;102469.78;6096128;23;20026;-79
2022/05/06 10:35:40;;;;;;;26.30;16.40;;;;;;;16.06;69.65;102591.50;6071686;23;20459;-79
2022/05/06 10:38:26;;;;;;;22.92;14.70;;;;;;;16.18;71.46;102595.16;6095416;23;20078;-78
2022/05/06 10:40:58;;;;;;;28.15;15.75;;;;;;;16.31;70.42;102596.09;6070683;23;20033;-79
2022/05/06 10:43:42;;;;;;;26.73;16.35;;;;;;;16.22;69.03;102588.00;6076912;23;20341;-77
2022/05/06 10:46:08;;;;;;;26.83;15.38;;;;;;;15.81;68.15;102539.13;6156596;23;20012;-78
2022/05/06 10:48:35;;;;;;;23.02;14.23;;;;;;;16.21;69.42;102579.34;6156484;23;20009;-80
2022/05/06 10:51:19;;;;;;;24.05;14.80;;;;;;;16.24;68.57;102581.78;6156542;23;20009;-80
2022/05/06 10:53:45;;;;;;;24.20;15.35;;;;;;;16.01;67.87;102504.94;6156868;23;20420;-80
2022/05/06 10:56:11;;;;;;;23.75;15.10;;;;;;;16.63;66.89;102581.16;6156661;23;19997;-81
2022/05/06 10:58:36;;;;;;;20.40;12.75;;;;;;;16.04;66.38;102454.41;6156829;23;20053;-80
2022/05/06 11:01:16;;;;;;;22.85;13.82;;;;;;;15.66;66.28;102374.19;6156713;23;20002;-80
2022/05/06 11:03:56;;;;;;;20.45;12.73;;;;;;;16.66;65.55;102517.53;6156355;23;20009;-79
2022/05/06 11:06:41;;;;;;;20.30;12.93;;;;;;;17.19;66.00;102569.00;6156698;23;20032;-80
2022/05/06 11:09:08;;;;;;;21.33;13.43;;;;;;;16.17;64.83;102378.94;6156523;23;20420;-79
2022/05/06 11:11:40;;;;;;;24.80;15.15;;;;;;;17.43;65.78;102561.38;6130114;23;20340;-79
2022/05/06 11:14:18;;;;;;;23.00;14.52;;;;;;;17.54;64.40;102558.09;6156623;23;20009;-80
2022/05/06 11:16:44;;;;;;;21.38;13.13;;;;;;;17.25;60.61;102518.19;6130774;23;20335;-79
2022/05/06 11:19:09;;;;;;;21.85;12.48;;;;;;;16.38;61.80;102384.56;6156589;23;19998;-79
2022/05/06 11:21:34;;;;;;;21.58;13.40;;;;;;;17.40;61.69;102561.59;6157056;23;20006;-79
2022/05/06 11:24:16;;;;;;;17.90;11.15;;;;;;;17.37;59.67;102542.66;6156673;23;20013;-79
2022/05/06 11:26:44;;;;;;;;;;;;;;;17.62;60.21;102565.44;6157039;23;20012;-79
2022/05/06 11:29:15;;;;;;;22.75;13.23;;;;;;;16.86;59.73;102419.78;6156395;23;19916;-79
2022/05/06 11:31:45;;;;;;;;;;;;;;;17.70;60.53;102547.50;6157003;23;20424;-79
2022/05/06 11:34:11;;;;;;;23.75;13.18;;;;;;;17.65;60.68;102539.09;6156242;23;19991;-78
2022/05/06 11:36:37;;;;;;;22.15;13.38;;;;;;;17.73;60.57;102542.06;6156447;23;20423;-78
2022/05/06 11:39:11;;;;;;;23.17;13.80;;;;;;;17.55;59.11;102510.13;6130511;23;20446;-78
2022/05/06 11:41:39;;;;;;;17.85;10.85;;;;;;;17.48;57.32;102501.00;6156640;23;20084;-77
2022/05/06 11:47:26;;;;;;;16.38;10.00;;;;;;;16.99;57.33;102404.16;6128981;23;20012;-78
2022/05/06 11:49:47;;;;;;;20.88;11.52;;;;;;;18.03;57.90;102513.88;6156510;23;20024;-78
2022/05/06 11:52:13;;;;;;;21.35;11.80;;;;;;;18.25;59.04;102541.19;6156317;23;20024;-79
2022/05/06 11:54:38;;;;;;;25.60;14.18;;;;;;;17.47;58.96;102387.03;6129326;23;20013;-79
2022/05/06 11:57:04;;;;;;;22.73;13.27;;;;;;;18.30;58.57;102539.09;6156036;23;20064;-84
2022/05/06 12:00:04;;;;;;;16.20;10.23;;;;;;;18.28;57.15;102520.03;6156104;23;20072;-80
2022/05/06 12:02:35;;;;;;;19.60;11.48;;;;;;;17.17;55.74;102342.91;6156288;23;20005;-80
2022/05/06 12:05:26;;;;;;;;;;;;;;;18.28;56.57;102517.44;6155056;23;20120;-80
2022/05/06 12:07:52;;;;;;;13.80;8.63;;;;;;;17.80;55.13;102436.22;6155070;23;19959;-80
2022/05/06 12:10:32;;;;;;;15.63;9.73;;;;;;;18.29;54.33;102511.28;6156050;23;20428;-80
2022/05/06 12:13:01;;;;;;;17.90;11.45;;;;;;;18.24;55.77;102495.06;6129285;23;20009;-80
2022/05/06 12:15:34;;;;;;;15.13;10.32;;;;;;;18.13;55.97;102472.28;6155817;23;20347;-81
2022/05/06 12:18:07;;;;;;;16.25;9.85;;;;;;;17.75;53.61;102425.22;6129320;23;20055;-80
2022/05/06 12:20:33;;;;;;;16.23;9.40;;;;;;;18.05;53.93;102470.16;6128986;23;20085;-79
2022/05/06 12:22:59;;;;;;;16.67;10.85;;;;;;;17.74;53.60;102431.38;6155374;23;20009;-82
2022/05/06 12:25:26;;;;;;;14.23;8.77;;;;;;;18.49;53.33;102508.13;6155851;23;20009;-80
2022/05/06 12:28:38;;;;;;;14.43;8.98;;;;;;;18.71;55.28;102498.78;6155877;23;20012;-81
2022/05/06 12:31:37;;;;;;;15.75;9.32;;;;;;;17.80;55.44;102313.41;6155930;23;20008;-82